createdAt,value
2019-02-05T00:01:08.205Z,11.10
2019-02-05T00:03:40.366Z,11.10
2019-02-05T00:06:12.847Z,11.00
2019-02-05T00:08:45.993Z,11.00
2019-02-05T00:11:18.361Z,11.00
2019-02-05T00:13:50.807Z,11.00
2019-02-05T00:16:23.197Z,11.00
2019-02-05T00:18:56.492Z,11.00
2019-02-05T00:21:28.649Z,10.90
2019-02-05T00:24:00.927Z,10.90
2019-02-05T00:26:33.078Z,10.90
2019-02-05T00:29:05.341Z,11.00
2019-02-05T00:31:38.066Z,11.00
2019-02-05T00:34:10.116Z,11.00
2019-02-05T00:36:42.387Z,10.90
2019-02-05T00:39:14.523Z,11.00
2019-02-05T00:41:46.720Z,11.00
2019-02-05T00:44:19.112Z,11.00
2019-02-05T00:46:51.574Z,11.10
2019-02-05T00:49:23.810Z,11.10
2019-02-05T00:51:55.965Z,11.10
2019-02-05T00:54:28.471Z,11.10
2019-02-05T00:57:00.798Z,11.10
2019-02-05T00:59:33.178Z,11.10
2019-02-05T01:02:05.510Z,11.10
2019-02-05T01:04:39.038Z,11.20
2019-02-05T01:07:11.787Z,11.20
2019-02-05T01:09:44.192Z,11.20
2019-02-05T01:12:16.526Z,11.20
2019-02-05T01:14:48.846Z,11.20
2019-02-05T01:17:21.264Z,11.20
2019-02-05T01:19:53.993Z,11.20
2019-02-05T01:22:26.395Z,11.20
2019-02-05T01:24:58.698Z,11.20
2019-02-05T01:27:31.048Z,11.20
2019-02-05T01:30:03.423Z,11.30
2019-02-05T01:32:36.869Z,11.30
2019-02-05T01:35:09.383Z,11.30
2019-02-05T01:37:41.992Z,11.30
2019-02-05T01:40:18.195Z,11.30
2019-02-05T01:42:57.038Z,11.30
2019-02-05T01:45:29.166Z,11.30
2019-02-05T01:48:01.400Z,11.30
2019-02-05T01:50:33.559Z,11.20
2019-02-05T01:53:06.197Z,11.20
2019-02-05T01:55:38.328Z,11.10
2019-02-05T01:58:10.565Z,11.10
2019-02-05T02:00:42.785Z,11.10
2019-02-05T02:03:14.936Z,11.00
2019-02-05T02:05:47.235Z,10.90
2019-02-05T02:08:19.384Z,10.90
2019-02-05T02:10:53.158Z,10.80
2019-02-05T02:13:25.313Z,10.80
2019-02-05T02:15:57.639Z,10.80
2019-02-05T02:18:29.876Z,10.80
2019-02-05T02:21:02.080Z,10.70
2019-02-05T02:23:34.240Z,10.70
2019-02-05T02:26:06.385Z,10.60
2019-02-05T02:28:38.539Z,10.60
2019-02-05T02:31:10.668Z,10.60
2019-02-05T02:33:42.840Z,10.50
2019-02-05T02:36:15.072Z,10.50
2019-02-05T02:38:50.034Z,10.50
2019-02-05T02:41:22.546Z,10.40
2019-02-05T02:43:54.705Z,10.40
2019-02-05T02:46:26.840Z,10.40
2019-02-05T02:48:59.100Z,10.30
2019-02-05T02:51:31.235Z,10.30
2019-02-05T02:54:03.712Z,10.30
2019-02-05T02:56:35.846Z,10.30
2019-02-05T02:59:08.009Z,10.20
2019-02-05T03:01:40.221Z,10.20
2019-02-05T03:04:12.384Z,10.20
2019-02-05T03:06:45.950Z,10.20
2019-02-05T03:09:18.102Z,10.20
2019-02-05T03:11:50.309Z,10.20
2019-02-05T03:14:24.787Z,10.20
2019-02-05T03:16:56.998Z,10.20
2019-02-05T03:19:29.724Z,10.20
2019-02-05T03:22:01.936Z,10.20
2019-02-05T03:24:34.239Z,10.20
2019-02-05T03:27:17.178Z,10.20
2019-02-05T03:29:40.402Z,10.20
2019-02-05T03:32:13.051Z,10.20
2019-02-05T03:34:45.207Z,10.20
2019-02-05T03:37:17.365Z,10.20
2019-02-05T03:39:49.487Z,10.10
2019-02-05T03:42:21.651Z,10.10
2019-02-05T03:44:53.781Z,10.10
2019-02-05T03:47:26.011Z,10.00
2019-02-05T03:49:58.178Z,10.00
2019-02-05T03:52:40.443Z,10.00
2019-02-05T03:56:02.280Z,9.90
2019-02-05T03:59:04.116Z,9.90
2019-02-05T04:02:18.417Z,9.90
2019-02-05T04:06:03.436Z,9.80
2019-02-05T04:09:31.948Z,9.70
2019-02-05T04:12:44.956Z,9.60
2019-02-05T04:16:06.225Z,9.60
2019-02-05T04:19:13.032Z,9.50
2019-02-05T04:22:14.643Z,9.40
2019-02-05T04:25:46.706Z,9.40
2019-02-05T04:29:13.390Z,9.30
2019-02-05T04:32:39.086Z,9.30
2019-02-05T04:35:50.252Z,9.30
2019-02-05T04:39:09.998Z,9.20
2019-02-05T04:42:48.384Z,9.20
2019-02-05T04:46:02.602Z,9.20
2019-02-05T04:49:41.749Z,9.20
2019-02-05T04:53:15.199Z,9.20
2019-02-05T04:56:44.819Z,9.10
2019-02-05T04:59:48.163Z,9.10
2019-02-05T05:03:07.461Z,9.10
2019-02-05T05:06:13.090Z,9.10
2019-02-05T05:09:52.376Z,9.10
2019-02-05T05:12:25.462Z,9.00
2019-02-05T05:14:57.835Z,9.10
2019-02-05T05:17:29.990Z,9.10
2019-02-05T05:20:02.125Z,9.10
2019-02-05T05:22:34.543Z,9.10
2019-02-05T05:25:09.289Z,9.10
2019-02-05T05:27:41.558Z,9.10
2019-02-05T05:30:18.278Z,9.10
2019-02-05T05:32:50.439Z,9.10
2019-02-05T05:35:22.567Z,9.10
2019-02-05T05:37:55.103Z,9.10
2019-02-05T05:40:27.235Z,9.10
2019-02-05T05:42:59.406Z,9.10
2019-02-05T05:45:31.603Z,9.10
2019-02-05T05:48:03.837Z,9.10
2019-02-05T05:50:36.365Z,9.10
2019-02-05T05:53:08.526Z,9.10
2019-02-05T05:55:40.763Z,9.10
2019-02-05T05:58:22.321Z,9.00
2019-02-05T06:00:46.760Z,9.00
2019-02-05T06:03:19.187Z,9.00
2019-02-05T06:05:51.322Z,9.00
2019-02-05T06:08:23.486Z,9.00
2019-02-05T06:10:55.610Z,9.00
2019-02-05T06:13:27.871Z,9.00
2019-02-05T06:16:00.242Z,9.10
2019-02-05T06:18:32.397Z,9.10
2019-02-05T06:21:04.830Z,9.10
2019-02-05T06:23:36.991Z,9.10
2019-02-05T06:26:09.172Z,9.00
2019-02-05T06:28:41.750Z,9.00
2019-02-05T06:31:14.018Z,9.00
2019-02-05T06:33:46.377Z,8.90
2019-02-05T06:36:18.755Z,8.90
2019-02-05T06:38:50.919Z,8.90
2019-02-05T06:41:24.662Z,8.80
2019-02-05T06:43:58.284Z,8.80
2019-02-05T06:46:30.473Z,8.80
2019-02-05T06:49:02.649Z,8.80
2019-02-05T06:51:34.849Z,8.80
2019-02-05T06:54:07.442Z,8.70
2019-02-05T06:56:42.336Z,8.70
2019-02-05T06:59:13.431Z,8.70
2019-02-05T07:01:45.662Z,8.70
2019-02-05T07:04:17.787Z,8.70
2019-02-05T07:06:50.219Z,8.70
2019-02-05T07:09:22.356Z,8.70
2019-02-05T07:11:54.513Z,8.70
2019-02-05T07:14:26.669Z,8.70
2019-02-05T07:16:59.216Z,8.70
2019-02-05T07:19:31.828Z,8.70
2019-02-05T07:22:04.070Z,8.70
2019-02-05T07:24:36.344Z,8.70
2019-02-05T07:27:08.569Z,8.60
2019-02-05T07:29:40.780Z,8.70
2019-02-05T07:32:13.427Z,8.70
2019-02-05T07:34:45.636Z,8.60
2019-02-05T07:37:17.801Z,8.70
2019-02-05T07:39:49.952Z,8.70
2019-02-05T07:42:22.108Z,8.80
2019-02-05T07:44:54.350Z,8.80
2019-02-05T07:47:26.503Z,8.90
2019-02-05T07:49:58.744Z,9.00
2019-02-05T07:52:30.895Z,9.10
2019-02-05T07:55:03.088Z,9.10
2019-02-05T07:57:35.247Z,9.20
2019-02-05T08:00:13.918Z,9.30
2019-02-05T08:02:46.255Z,9.30
2019-02-05T08:05:21.950Z,9.30
2019-02-05T08:07:54.137Z,9.40
2019-02-05T08:10:26.441Z,9.40
2019-02-05T08:12:58.830Z,9.40
2019-02-05T08:15:33.363Z,9.50
2019-02-05T08:18:05.985Z,9.50
2019-02-05T08:20:38.118Z,9.60
2019-02-05T08:23:10.338Z,9.60
2019-02-05T08:25:42.467Z,9.70
2019-02-05T08:28:14.628Z,9.70
2019-02-05T08:30:48.849Z,9.80
2019-02-05T08:33:21.079Z,9.80
2019-02-05T08:35:53.218Z,9.80
2019-02-05T08:38:25.474Z,9.80
2019-02-05T08:40:57.611Z,9.90
2019-02-05T08:43:29.933Z,10.00
2019-02-05T08:46:02.083Z,10.00
2019-02-05T08:48:34.406Z,10.10
2019-02-05T08:51:06.739Z,10.10
2019-02-05T08:53:40.148Z,10.10
2019-02-05T08:56:12.433Z,10.20
2019-02-05T08:58:46.409Z,10.30
2019-02-05T09:01:18.629Z,10.30
2019-02-05T09:03:50.859Z,10.30
2019-02-05T09:06:23.168Z,10.40
2019-02-05T09:08:55.416Z,10.40
2019-02-05T09:11:27.564Z,10.50
2019-02-05T09:14:10.350Z,10.50
2019-02-05T09:16:33.645Z,10.50
2019-02-05T09:19:06.036Z,10.60
2019-02-05T09:21:38.252Z,10.70
2019-02-05T09:24:10.565Z,10.70
2019-02-05T09:26:42.701Z,10.80
2019-02-05T09:29:14.865Z,10.80
2019-02-05T09:31:47.288Z,10.90
2019-02-05T09:34:19.750Z,10.90
2019-02-05T09:36:51.889Z,11.00
2019-02-05T09:39:24.335Z,11.10
2019-02-05T09:41:56.545Z,11.20
2019-02-05T09:44:31.483Z,11.20
2019-02-05T09:47:03.121Z,11.30
2019-02-05T09:49:35.381Z,11.30
2019-02-05T09:52:07.515Z,11.40
2019-02-05T09:54:39.830Z,11.50
2019-02-05T09:57:12.457Z,11.50
2019-02-05T09:59:45.715Z,11.60
2019-02-05T10:02:18.061Z,11.60
2019-02-05T10:04:50.176Z,11.70
2019-02-05T10:07:22.307Z,11.70
2019-02-05T10:09:54.854Z,11.80
2019-02-05T10:12:26.995Z,11.80
2019-02-05T10:15:00.120Z,11.90
2019-02-05T10:17:32.452Z,11.90
2019-02-05T10:20:05.954Z,12.00
2019-02-05T10:22:38.161Z,12.10
2019-02-05T10:25:11.165Z,12.10
2019-02-05T10:27:43.374Z,12.20
2019-02-05T10:30:37.678Z,12.20
2019-02-05T10:33:10.646Z,12.20
2019-02-05T10:35:43.107Z,12.30
2019-02-05T10:38:15.251Z,12.30
2019-02-05T10:40:47.491Z,12.40
2019-02-05T10:43:19.640Z,12.40
2019-02-05T10:45:52.184Z,12.40
2019-02-05T10:48:24.325Z,12.50
2019-02-05T10:50:56.507Z,12.50
2019-02-05T10:53:28.657Z,12.50
2019-02-05T10:56:01.174Z,12.60
2019-02-05T10:58:33.711Z,12.60
2019-02-05T11:01:06.020Z,12.60
2019-02-05T11:03:38.234Z,12.60
2019-02-05T11:06:10.477Z,12.60
2019-02-05T11:08:42.613Z,12.70
2019-02-05T11:11:15.158Z,12.70
2019-02-05T11:13:47.490Z,12.70
2019-02-05T11:16:19.808Z,12.70
2019-02-05T11:18:52.063Z,12.80
2019-02-05T11:21:24.340Z,12.80
2019-02-05T11:23:56.493Z,12.90
2019-02-05T11:26:28.668Z,12.90
2019-02-05T11:29:00.807Z,12.90
2019-02-05T11:31:33.088Z,13.00
2019-02-05T11:34:05.373Z,13.00
2019-02-05T11:36:37.629Z,13.00
2019-02-05T11:39:16.301Z,13.00
2019-02-05T11:41:48.464Z,13.10
2019-02-05T11:44:20.779Z,13.10
2019-02-05T11:46:52.956Z,13.10
2019-02-05T11:49:25.553Z,13.10
2019-02-05T11:51:57.853Z,13.10
2019-02-05T11:54:30.002Z,13.20
2019-02-05T11:57:02.280Z,13.20
2019-02-05T11:59:34.529Z,13.20
2019-02-05T12:02:06.710Z,13.30
2019-02-05T12:04:39.056Z,13.30
2019-02-05T12:07:11.242Z,13.30
2019-02-05T12:09:43.537Z,13.30
2019-02-05T12:12:15.822Z,13.40
2019-02-05T12:14:50.283Z,13.40
2019-02-05T12:17:22.092Z,13.40
2019-02-05T12:19:55.736Z,13.40
2019-02-05T12:22:28.176Z,13.40
2019-02-05T12:25:00.380Z,13.40
2019-02-05T12:27:33.773Z,13.50
2019-02-05T12:30:19.697Z,13.50
2019-02-05T12:32:53.944Z,13.50
2019-02-05T12:35:26.435Z,13.50
2019-02-05T12:37:58.719Z,13.60
2019-02-05T12:40:30.867Z,13.60
2019-02-05T12:43:03.074Z,13.60
2019-02-05T12:45:35.471Z,13.60
2019-02-05T12:48:07.849Z,13.60
2019-02-05T12:50:40.211Z,13.60
2019-02-05T12:53:13.621Z,13.60
2019-02-05T12:55:45.769Z,13.60
2019-02-05T12:58:18.073Z,13.60
2019-02-05T13:00:58.296Z,13.60
2019-02-05T13:03:27.432Z,13.70
2019-02-05T13:05:59.581Z,13.70
2019-02-05T13:08:31.815Z,13.70
2019-02-05T13:11:03.974Z,13.70
2019-02-05T13:13:36.229Z,13.70
2019-02-05T13:16:08.664Z,13.70
2019-02-05T13:18:40.897Z,13.70
2019-02-05T13:21:13.233Z,13.70
2019-02-05T13:23:47.102Z,13.70
2019-02-05T13:26:19.396Z,13.70
2019-02-05T13:28:51.636Z,13.70
2019-02-05T13:31:24.179Z,13.70
2019-02-05T13:33:56.588Z,13.80
2019-02-05T13:36:29.056Z,13.80
2019-02-05T13:39:01.766Z,13.80
2019-02-05T13:41:35.806Z,13.80
2019-02-05T13:44:08.475Z,13.80
2019-02-05T13:46:40.795Z,13.80
2019-02-05T13:49:13.422Z,13.80
2019-02-05T13:51:46.120Z,13.80
2019-02-05T13:54:21.325Z,13.80
2019-02-05T13:56:53.643Z,13.80
2019-02-05T13:59:26.172Z,13.90
2019-02-05T14:01:58.693Z,13.90
2019-02-05T14:04:33.618Z,13.90
2019-02-05T14:07:06.162Z,13.90
2019-02-05T14:09:39.161Z,13.90
2019-02-05T14:12:11.607Z,13.90
2019-02-05T14:14:45.303Z,13.90
2019-02-05T14:17:17.610Z,13.90
2019-02-05T14:19:50.087Z,13.90
2019-02-05T14:22:22.505Z,13.90
2019-02-05T14:24:56.657Z,13.90
2019-02-05T14:27:29.003Z,13.90
2019-02-05T14:30:01.285Z,13.90
2019-02-05T14:32:33.689Z,13.90
2019-02-05T14:35:07.803Z,13.90
2019-02-05T14:37:40.525Z,13.90
2019-02-05T14:40:15.897Z,13.90
2019-02-05T14:42:48.288Z,13.90
2019-02-05T14:45:20.638Z,13.90
2019-02-05T14:47:52.957Z,13.90
2019-02-05T14:50:28.469Z,13.90
2019-02-05T14:53:00.905Z,13.90
2019-02-05T14:55:33.415Z,13.90
2019-02-05T14:58:08.416Z,13.90
2019-02-05T15:00:42.194Z,13.90
2019-02-05T15:03:16.067Z,13.90
2019-02-05T15:05:49.262Z,13.90
2019-02-05T15:08:22.996Z,13.90
2019-02-05T15:10:55.228Z,13.90
2019-02-05T15:13:27.421Z,13.90
2019-02-05T15:15:59.618Z,13.90
2019-02-05T15:18:32.861Z,13.90
2019-02-05T15:21:05.586Z,13.90
2019-02-05T15:23:38.208Z,13.90
2019-02-05T15:26:10.469Z,13.90
2019-02-05T15:28:42.616Z,13.90
2019-02-05T15:31:14.872Z,13.90
2019-02-05T15:33:51.493Z,13.90
2019-02-05T15:36:44.344Z,13.80
2019-02-05T15:39:16.594Z,13.80
2019-02-05T15:41:48.766Z,13.90
2019-02-05T15:44:20.835Z,13.90
2019-02-05T15:46:53.539Z,13.80
2019-02-05T15:49:27.040Z,13.80
2019-02-05T15:51:59.505Z,13.80
2019-02-05T15:54:31.647Z,13.80
2019-02-05T15:57:03.810Z,13.80
2019-02-05T15:59:36.026Z,13.80
2019-02-05T16:02:08.229Z,13.80
2019-02-05T16:04:40.406Z,13.80
2019-02-05T16:07:13.177Z,13.80
2019-02-05T16:09:45.471Z,13.80
2019-02-05T16:12:17.648Z,13.80
2019-02-05T16:14:49.795Z,13.80
2019-02-05T16:17:22.037Z,13.80
2019-02-05T16:19:54.637Z,13.80
2019-02-05T16:22:26.912Z,13.80
2019-02-05T16:24:59.133Z,13.70
2019-02-05T16:27:31.326Z,13.70
2019-02-05T16:30:03.718Z,13.70
2019-02-05T16:32:36.334Z,13.70
2019-02-05T16:35:08.943Z,13.70
2019-02-05T16:37:41.225Z,13.70
2019-02-05T16:40:17.792Z,13.70
2019-02-05T16:42:49.963Z,13.70
2019-02-05T16:45:25.143Z,13.60
2019-02-05T16:47:57.322Z,13.60
2019-02-05T16:50:33.479Z,13.60
2019-02-05T16:53:07.295Z,13.50
2019-02-05T16:55:39.446Z,13.60
2019-02-05T16:58:11.610Z,13.60
2019-02-05T17:00:43.912Z,13.60
2019-02-05T17:03:16.153Z,13.50
2019-02-05T17:05:48.374Z,13.50
2019-02-05T17:08:20.547Z,13.50
2019-02-05T17:10:52.624Z,13.50
2019-02-05T17:13:24.793Z,13.40
2019-02-05T17:15:56.936Z,13.40
2019-02-05T17:18:29.105Z,13.40
2019-02-05T17:21:01.325Z,13.40
2019-02-05T17:23:33.496Z,13.40
2019-02-05T17:26:05.768Z,13.40
2019-02-05T17:28:37.934Z,13.40
2019-02-05T17:31:10.358Z,13.40
2019-02-05T17:33:42.563Z,13.40
2019-02-05T17:36:14.707Z,13.40
2019-02-05T17:38:48.576Z,13.30
2019-02-05T17:41:20.775Z,13.30
2019-02-05T17:43:53.384Z,13.20
2019-02-05T17:46:25.611Z,13.20
2019-02-05T17:48:58.095Z,13.20
2019-02-05T17:51:30.280Z,13.20
2019-02-05T17:54:02.676Z,13.10
2019-02-05T17:56:35.018Z,13.10
2019-02-05T17:59:07.220Z,13.10
2019-02-05T18:01:39.416Z,13.10
2019-02-05T18:04:11.591Z,13.00
2019-02-05T18:06:43.941Z,13.00
2019-02-05T18:09:16.271Z,12.90
2019-02-05T18:11:48.851Z,12.90
2019-02-05T18:14:21.400Z,12.90
2019-02-05T18:16:53.601Z,12.90
2019-02-05T18:19:25.785Z,12.90
2019-02-05T18:21:57.993Z,12.80
2019-02-05T18:24:30.794Z,12.80
2019-02-05T18:27:03.611Z,12.80
2019-02-05T18:29:36.683Z,12.80
2019-02-05T18:32:10.389Z,12.70
2019-02-05T18:34:42.895Z,12.70
2019-02-05T18:37:15.142Z,12.70
2019-02-05T18:39:47.342Z,12.60
2019-02-05T18:42:19.584Z,12.60
2019-02-05T18:44:51.990Z,12.60
2019-02-05T18:47:24.336Z,12.60
2019-02-05T18:49:56.575Z,12.50
2019-02-05T18:52:28.754Z,12.50
2019-02-05T18:55:01.991Z,12.40
2019-02-05T18:57:34.218Z,12.40
2019-02-05T19:00:18.277Z,12.30
2019-02-05T19:02:50.543Z,12.30
2019-02-05T19:05:22.733Z,12.30
2019-02-05T19:07:54.886Z,12.20
2019-02-05T19:10:28.198Z,12.20
2019-02-05T19:13:00.863Z,12.20
2019-02-05T19:15:35.487Z,12.10
2019-02-05T19:18:09.732Z,12.10
2019-02-05T19:20:41.992Z,12.10
2019-02-05T19:23:14.337Z,12.10
2019-02-05T19:26:04.158Z,12.10
2019-02-05T19:28:37.979Z,12.10
2019-02-05T19:31:29.098Z,12.10
2019-02-05T19:34:01.239Z,12.10
2019-02-05T19:36:34.663Z,12.10
2019-02-05T19:39:08.687Z,12.20
2019-02-05T19:41:41.634Z,12.20
2019-02-05T19:44:14.097Z,12.20
2019-02-05T19:47:04.631Z,12.30
2019-02-05T19:49:45.983Z,12.30
2019-02-05T19:52:19.447Z,12.20
2019-02-05T19:54:51.662Z,12.20
2019-02-05T19:57:23.858Z,12.20
2019-02-05T19:59:56.384Z,12.20
2019-02-05T20:02:28.569Z,12.20
2019-02-05T20:05:00.886Z,12.20
2019-02-05T20:07:33.152Z,12.20
2019-02-05T20:10:06.483Z,12.30
2019-02-05T20:12:38.806Z,12.30
2019-02-05T20:15:10.993Z,12.20
2019-02-05T20:17:43.144Z,12.20
2019-02-05T20:20:15.782Z,12.20
2019-02-05T20:22:48.022Z,12.20
2019-02-05T20:25:20.187Z,12.20
2019-02-05T20:27:53.664Z,12.20
2019-02-05T20:30:25.889Z,12.20
2019-02-05T20:32:58.093Z,12.20
2019-02-05T20:35:30.238Z,12.10
2019-02-05T20:38:02.475Z,12.10
2019-02-05T20:40:34.773Z,12.10
2019-02-05T20:43:07.068Z,12.10
2019-02-05T20:45:39.538Z,12.10
2019-02-05T20:48:11.680Z,12.10
2019-02-05T20:50:44.139Z,12.10
2019-02-05T20:53:16.272Z,12.00
2019-02-05T20:55:48.513Z,12.00
2019-02-05T20:58:20.693Z,12.00
2019-02-05T21:00:52.849Z,12.00
2019-02-05T21:03:25.402Z,12.00
2019-02-05T21:05:57.563Z,12.00
2019-02-05T21:08:30.014Z,12.00
2019-02-05T21:11:20.098Z,11.90
2019-02-05T21:13:52.797Z,11.90
2019-02-05T21:16:25.222Z,11.90
2019-02-05T21:18:57.571Z,11.80
2019-02-05T21:21:29.907Z,11.80
2019-02-05T21:24:02.259Z,11.80
2019-02-05T21:26:34.603Z,11.70
2019-02-05T21:29:07.013Z,11.70
2019-02-05T21:31:39.429Z,11.70
2019-02-05T21:34:16.032Z,11.70
2019-02-05T21:36:45.635Z,11.70
2019-02-05T21:39:17.766Z,11.70
2019-02-05T21:41:49.948Z,11.60
2019-02-05T21:44:22.099Z,11.60
2019-02-05T21:46:54.289Z,11.60
2019-02-05T21:49:26.501Z,11.50
2019-02-05T21:51:58.836Z,11.50
2019-02-05T21:54:30.977Z,11.40
2019-02-05T21:57:03.226Z,11.40
2019-02-05T21:59:35.360Z,11.30
2019-02-05T22:02:07.723Z,11.30
2019-02-05T22:04:40.170Z,11.30
2019-02-05T22:07:12.329Z,11.20
2019-02-05T22:09:44.614Z,11.20
2019-02-05T22:12:16.737Z,11.20
2019-02-05T22:14:48.950Z,11.10
2019-02-05T22:17:21.395Z,11.10
2019-02-05T22:19:53.546Z,11.10
2019-02-05T22:22:25.878Z,11.00
2019-02-05T22:24:58.131Z,11.00
2019-02-05T22:27:30.282Z,11.00
2019-02-05T22:30:02.415Z,11.00
2019-02-05T22:32:36.215Z,10.90
2019-02-05T22:35:08.947Z,10.90
2019-02-05T22:37:41.107Z,10.90
2019-02-05T22:40:13.742Z,10.80
2019-02-05T22:42:46.004Z,10.80
2019-02-05T22:45:18.668Z,10.70
2019-02-05T22:47:50.830Z,10.70
2019-02-05T22:50:25.904Z,10.70
2019-02-05T22:52:58.867Z,10.70
2019-02-05T22:55:31.007Z,10.70
2019-02-05T22:58:03.278Z,10.70
2019-02-05T23:01:36.655Z,10.70
2019-02-05T23:04:51.270Z,10.60
2019-02-05T23:07:26.412Z,10.60
2019-02-05T23:11:19.059Z,10.50
2019-02-05T23:13:51.334Z,10.50
2019-02-05T23:16:23.542Z,10.40
2019-02-05T23:18:56.672Z,10.40
2019-02-05T23:21:28.815Z,10.40
2019-02-05T23:24:01.670Z,10.30
2019-02-05T23:26:34.970Z,10.40
2019-02-05T23:29:07.263Z,10.40
2019-02-05T23:31:39.503Z,10.40
2019-02-05T23:34:11.774Z,10.40
2019-02-05T23:36:44.348Z,10.40
2019-02-05T23:39:16.632Z,10.30
2019-02-05T23:41:49.037Z,10.30
2019-02-05T23:44:21.389Z,10.30
2019-02-05T23:46:53.630Z,10.30
2019-02-05T23:49:26.150Z,10.30
2019-02-05T23:51:58.529Z,10.30
2019-02-05T23:54:30.878Z,10.30
2019-02-05T23:57:03.204Z,10.20
2019-02-05T23:59:35.425Z,10.20
